Αρχική σελίδα
METAR-TAF:

METAR-TAF

Αεροδρόμια :

Mitiga International Airport

Τρίπολη, Λιβύη

γεωγραφικό πλάτος: 32-54N, γεωγραφικό μήκος: 13-17E, υψόμετρο: 11 μ

METAR: λείπει

Χρόνος: 01:17 (23:17 UTC)

Πρόγνωση Καιρού

Η αναφορά έγινε 12 ώρες και 17 λεπτά πριν, στις 11:00 UTC
Η πρόγνωση ισχύει από τις 21 στις 12 UTC έως τις 22 στις 12 UTC
Άνεμος 50 kt από Δ/ΝΔ
Ορατότητα: 8000 μ
Διάσπαρτα νέφη σε ύψος 2000 πόδια
Διάσπαρτα νέφη σε ύψος 8000 πόδια
Καθιστάμενος
από 21 στις 16 UTC έως τις 21 στις 18 UTC
Άνεμος 2 kt από μεταβλητές κατευθύνσεις
Πιθανότητα 30% :
Προσωρινά
από 22 στις 00 UTC έως τις 22 στις 12 UTC
Ορατότητα: 5000 μ
Αρκετά νέφη σε ύψος 2000 πόδια
Όμβροι

TAF: HLLM 211100Z 2112/2212 240050KT 8000 SCT020 SCT080 BECMG 2116/2118 VRB02KT PROB30 TEMPO 2200/2212 5000 SHRA BKN020

Μετεωρολογικές αναφορές και προγνώσεις για περισσότερα από 4000 αεροδρόμια (δελτία METAR και TAF).

Οι διαθέσιμοι σταθμοί απεικονίζονται στο χάρτη με κίτρινες και κόκκινες κουκκίδες.

Μετακινήστε το ποντίκι πάνω από τις κουκκίδες για να δείτε το όνομα του σταθμού.

Στη συνέχεια, κάντε κλικ για να δείτε τις μετεωρολογικές αναφορές και τις προγνώσεις καιρού.

Για να αλλάξετε το χάρτη: κάντε κλικ στα πράσινα κουμπιά με τον μαύρο σταυρό για να ζουμάρετε, στο πράσινο κουμπί με την παύλα για να αφαιρέσετε το ζουμ ή στα πράσινα βέλη για να αντιπαραβάλλετε χάρτες.


METAR-TAF: